Time;durP1;ratioP1;P1;durP2;ratioP2;P2;SDS_P1;SDS_P2;PMS_P1;PMS_P2;Temp;Humidity;BMP_temperature;BMP_pressure;BME280_temperature;BME280_humidity;BME280_pressure;Samples;Min_cycle;Max_cycle;Signal;HPM_P1;HPM_P2
2021/05/30 00:01:55;;;;;;;20.70;13.20;;;8.00;85.40;;;;;;5015868;28;20173;-87
2021/05/30 00:04:21;;;;;;;30.93;14.63;;;7.90;85.90;;;;;;5016052;28;20614;-87
2021/05/30 00:06:48;;;;;;;19.07;13.23;;;7.90;86.50;;;;;;5015892;28;20183;-87
2021/05/30 00:09:14;;;;;;;22.47;13.13;;;7.90;86.80;;;;;;5015603;28;20177;-86
2021/05/30 00:11:40;;;;;;;21.43;13.20;;;7.80;86.90;;;;;;5033101;28;20175;-85
2021/05/30 00:14:06;;;;;;;127.57;16.57;;;7.90;86.90;;;;;;5015292;28;20202;-86
2021/05/30 00:16:32;;;;;;;70.13;12.37;;;7.90;86.60;;;;;;5015295;28;20254;-87
2021/05/30 00:18:59;;;;;;;27.87;11.80;;;7.90;86.20;;;;;;5015428;28;20185;-86
2021/05/30 00:21:25;;;;;;;17.30;11.57;;;7.90;86.30;;;;;;5032989;28;20641;-86
2021/05/30 00:23:50;;;;;;;10.63;9.53;;;7.90;86.20;;;;;;5015168;28;20245;-87
2021/05/30 00:26:16;;;;;;;12.73;10.27;;;7.80;86.20;;;;;;5015374;28;20172;-86
2021/05/30 00:28:42;;;;;;;16.43;9.83;;;7.80;85.80;;;;;;5032984;28;20173;-86
2021/05/30 00:31:08;;;;;;;20.23;9.70;;;7.80;85.40;;;;;;5032884;28;20183;-86
2021/05/30 00:33:33;;;;;;;11.93;9.37;;;7.70;85.20;;;;;;5032720;28;20200;-85
2021/05/30 00:35:59;;;;;;;9.07;7.73;;;7.70;84.90;;;;;;5032787;28;20275;-85
2021/05/30 00:38:25;;;;;;;16.57;8.77;;;7.60;85.00;;;;;;5032807;28;20633;-85
2021/05/30 00:40:52;;;;;;;13.43;8.50;;;7.50;84.90;;;;;;5015132;28;20649;-86
2021/05/30 00:43:18;;;;;;;8.73;7.90;;;7.50;84.80;;;;;;5015175;28;20208;-86
2021/05/30 00:45:45;;;;;;;10.77;7.87;;;7.40;84.60;;;;;;5033030;28;20173;-86
2021/05/30 00:48:11;;;;;;;12.67;8.40;;;7.30;84.40;;;;;;5014918;28;20322;-85
2021/05/30 00:50:37;;;;;;;12.40;8.73;;;7.10;84.80;;;;;;5015102;28;20204;-85
2021/05/30 00:53:03;;;;;;;14.07;8.53;;;6.90;85.60;;;;;;5014890;28;20609;-86
2021/05/30 00:55:29;;;;;;;13.53;9.30;;;6.80;85.90;;;;;;5032631;28;20714;-85
2021/05/30 00:57:55;;;;;;;10.17;8.57;;;6.80;86.10;;;;;;5032669;28;20255;-85
2021/05/30 01:00:21;;;;;;;11.93;7.90;;;6.80;86.10;;;;;;5014947;28;20648;-85
2021/05/30 01:02:46;;;;;;;10.70;8.97;;;6.80;86.10;;;;;;5032536;28;20193;-86
2021/05/30 01:05:12;;;;;;;8.60;7.70;;;6.80;86.10;;;;;;5033719;28;20171;-85
2021/05/30 01:07:42;;;;;;;8.23;6.40;;;6.70;86.20;;;;;;5036334;28;20176;-85
2021/05/30 01:10:45;;;;;;;10.60;7.13;;;6.70;86.00;;;;;;5018525;28;20169;-85
2021/05/30 01:13:12;;;;;;;17.80;8.43;;;6.70;86.10;;;;;;5031180;28;20239;-86
2021/05/30 01:15:39;;;;;;;18.17;8.90;;;6.70;86.00;;;;;;5018314;28;20226;-85
2021/05/30 01:18:05;;;;;;;19.47;9.10;;;6.70;85.80;;;;;;5018298;28;20177;-85
2021/05/30 01:20:30;;;;;;;91.00;9.83;;;6.70;85.90;;;;;;5018183;28;20649;-85
2021/05/30 01:22:57;;;;;;;110.13;11.40;;;6.70;86.40;;;;;;5035888;28;20271;-86
2021/05/30 01:25:25;;;;;;;143.77;11.00;;;6.70;87.10;;;;;;5018188;28;20184;-85
2021/05/30 01:27:51;;;;;;;160.27;10.73;;;6.70;88.10;;;;;;5035860;28;20198;-85
2021/05/30 01:30:20;;;;;;;125.97;9.83;;;6.50;88.80;;;;;;5018104;28;20145;-85
2021/05/30 01:32:46;;;;;;;47.97;5.60;;;6.30;89.30;;;;;;5035749;28;20196;-86
2021/05/30 01:35:13;;;;;;;110.87;8.40;;;6.40;89.30;;;;;;5018036;28;20616;-85
2021/05/30 01:37:40;;;;;;;152.37;9.60;;;6.40;89.10;;;;;;5035949;28;20208;-85
2021/05/30 01:40:06;;;;;;;151.90;11.37;;;6.40;89.20;;;;;;5035677;28;20654;-85
2021/05/30 01:42:32;;;;;;;125.90;8.63;;;6.40;89.40;;;;;;5035365;28;20280;-86
2021/05/30 01:44:57;;;;;;;175.07;15.53;;;6.40;89.60;;;;;;5035610;28;20636;-85
2021/05/30 01:47:23;;;;;;;135.63;10.63;;;6.40;89.70;;;;;;5017845;28;20215;-85
2021/05/30 01:49:48;;;;;;;159.20;14.33;;;6.50;89.80;;;;;;5035583;28;20184;-86
2021/05/30 01:52:14;;;;;;;120.87;16.53;;;6.50;89.70;;;;;;5017665;28;20683;-86
2021/05/30 01:54:43;;;;;;;22.87;10.43;;;6.50;89.90;;;;;;5035658;28;20631;-85
2021/05/30 01:57:10;;;;;;;22.87;10.57;;;6.60;90.10;;;;;;5035225;28;20295;-86
2021/05/30 01:59:37;;;;;;;22.70;11.43;;;6.70;90.10;;;;;;5017590;28;20271;-85
2021/05/30 02:02:04;;;;;;;25.03;10.83;;;6.70;89.90;;;;;;5035480;28;20226;-85
2021/05/30 02:04:34;;;;;;;25.90;13.83;;;6.80;89.70;;;;;;5017528;28;20203;-85
2021/05/30 02:07:00;;;;;;;21.90;13.63;;;6.70;89.50;;;;;;5017423;28;20596;-85
2021/05/30 02:09:27;;;;;;;28.67;15.63;;;6.80;89.60;;;;;;5035147;28;20184;-85
2021/05/30 02:11:53;;;;;;;43.97;14.90;;;6.80;89.50;;;;;;5035122;28;20212;-86
2021/05/30 02:14:20;;;;;;;124.17;16.47;;;6.80;89.50;;;;;;5035002;28;20220;-86
2021/05/30 02:16:46;;;;;;;204.50;19.13;;;6.80;89.50;;;;;;5017088;28;20212;-86
2021/05/30 02:19:12;;;;;;;99.80;17.57;;;6.80;89.20;;;;;;5017984;28;20643;-85
2021/05/30 02:21:50;;;;;;;24.43;12.50;;;6.80;89.20;;;;;;5034922;28;20180;-85
2021/05/30 02:24:17;;;;;;;78.20;13.33;;;6.80;89.20;;;;;;5034766;28;20196;-86
2021/05/30 02:26:43;;;;;;;64.40;13.70;;;6.80;89.10;;;;;;5034798;28;20537;-86
2021/05/30 02:29:17;;;;;;;125.13;14.57;;;6.80;89.10;;;;;;5016979;28;20659;-85
2021/05/30 02:31:43;;;;;;;280.83;21.17;;;6.80;88.80;;;;;;5017002;28;20165;-86
2021/05/30 02:34:08;;;;;;;546.70;32.13;;;6.80;88.80;;;;;;5034722;28;20200;-86
2021/05/30 02:36:34;;;;;;;203.17;17.30;;;6.70;89.10;;;;;;5016749;28;20576;-85
2021/05/30 02:38:59;;;;;;;258.40;18.70;;;6.70;89.30;;;;;;5034526;28;20247;-85
2021/05/30 02:41:25;;;;;;;359.17;24.73;;;6.70;89.50;;;;;;5034501;28;20666;-86
2021/05/30 02:43:50;;;;;;;27.47;12.87;;;6.60;89.70;;;;;;5034311;28;20657;-86
2021/05/30 02:46:16;;;;;;;191.93;17.27;;;6.70;89.90;;;;;;5016630;28;20181;-86
2021/05/30 02:48:42;;;;;;;63.53;12.67;;;6.70;89.80;;;;;;5016753;28;20678;-85
2021/05/30 02:51:08;;;;;;;85.50;11.53;;;6.70;89.60;;;;;;5016661;28;20272;-85
2021/05/30 02:53:34;;;;;;;31.50;10.87;;;6.60;89.40;;;;;;5034150;28;20623;-86
2021/05/30 02:56:01;;;;;;;151.23;15.57;;;6.70;89.20;;;;;;5034136;28;20635;-85
2021/05/30 02:58:29;;;;;;;246.37;17.27;;;6.60;88.90;;;;;;5034533;28;20557;-85
2021/05/30 03:00:55;;;;;;;306.43;22.73;;;6.60;89.20;;;;;;5016413;28;20173;-85
2021/05/30 03:03:21;;;;;;;78.37;13.40;;;6.60;89.50;;;;;;5016295;28;20329;-86
2021/05/30 03:05:47;;;;;;;24.47;10.27;;;6.60;89.70;;;;;;5033894;28;20187;-85
2021/05/30 03:08:13;;;;;;;179.87;14.37;;;6.60;89.60;;;;;;5016288;28;20173;-85
2021/05/30 03:10:38;;;;;;;212.07;17.87;;;6.60;89.40;;;;;;5033941;28;20643;-86
2021/05/30 03:13:04;;;;;;;286.20;22.43;;;6.50;89.50;;;;;;5016129;28;20207;-86
2021/05/30 03:15:30;;;;;;;66.13;13.43;;;6.50;89.70;;;;;;5016184;28;20176;-86
2021/05/30 03:17:56;;;;;;;25.70;12.57;;;6.50;89.90;;;;;;5033857;28;20216;-86
2021/05/30 03:20:22;;;;;;;20.33;12.97;;;6.60;89.80;;;;;;5033855;28;20161;-86
2021/05/30 03:22:47;;;;;;;27.83;13.70;;;6.60;89.70;;;;;;5015915;28;20193;-86
2021/05/30 03:25:14;;;;;;;95.07;16.37;;;6.60;89.40;;;;;;5033769;28;20514;-86
2021/05/30 03:27:40;;;;;;;25.20;15.30;;;6.60;89.40;;;;;;5015815;28;20585;-85
2021/05/30 03:30:07;;;;;;;156.03;18.53;;;6.70;89.70;;;;;;5032859;28;20196;-85
2021/05/30 03:32:33;;;;;;;25.40;15.90;;;6.70;89.80;;;;;;5015781;28;20672;-86
2021/05/30 03:34:58;;;;;;;29.90;16.13;;;6.70;89.90;;;;;;5033576;28;20175;-85
2021/05/30 03:37:24;;;;;;;26.50;16.13;;;6.70;89.80;;;;;;5033854;28;20200;-85
2021/05/30 03:39:53;;;;;;;38.53;19.70;;;6.70;89.70;;;;;;5015844;28;20207;-85
2021/05/30 03:42:21;;;;;;;33.13;19.80;;;6.80;89.80;;;;;;5015465;28;20173;-86
2021/05/30 03:44:48;;;;;;;33.97;21.73;;;6.80;90.20;;;;;;5015766;28;20186;-85
2021/05/30 03:47:13;;;;;;;34.87;21.40;;;6.80;90.40;;;;;;5033321;28;20175;-86
2021/05/30 03:49:40;;;;;;;39.53;22.63;;;6.90;90.50;;;;;;5015732;28;20275;-85
2021/05/30 03:52:07;;;;;;;33.00;21.50;;;7.00;90.90;;;;;;5033344;28;20538;-85
2021/05/30 03:54:33;;;;;;;55.30;26.33;;;7.00;91.10;;;;;;5015629;28;20526;-85
2021/05/30 03:56:59;;;;;;;42.90;25.83;;;7.20;91.40;;;;;;5033207;28;20218;-86
2021/05/30 03:59:24;;;;;;;54.90;28.90;;;7.20;91.70;;;;;;5015439;28;20640;-85
2021/05/30 04:01:50;;;;;;;57.23;31.30;;;7.30;91.80;;;;;;5033228;28;20168;-86
2021/05/30 04:04:16;;;;;;;60.93;29.13;;;7.40;92.10;;;;;;5033438;28;20192;-86
2021/05/30 04:06:42;;;;;;;47.27;28.57;;;7.60;92.30;;;;;;5015479;28;20181;-85
2021/05/30 04:09:07;;;;;;;53.27;27.57;;;7.70;92.60;;;;;;5033379;28;20168;-85
2021/05/30 04:11:33;;;;;;;57.40;29.03;;;7.80;92.80;;;;;;5015450;28;20177;-86
2021/05/30 04:13:58;;;;;;;58.80;29.43;;;7.90;93.00;;;;;;5033001;28;20203;-86
2021/05/30 04:16:24;;;;;;;68.57;32.27;;;7.90;93.10;;;;;;5032975;28;20251;-86
2021/05/30 04:18:50;;;;;;;61.17;31.50;;;8.00;93.10;;;;;;5032941;28;20177;-86
2021/05/30 04:21:15;;;;;;;56.27;27.60;;;8.10;93.20;;;;;;5032999;28;20207;-86
2021/05/30 04:23:41;;;;;;;51.47;26.60;;;8.20;93.30;;;;;;5033114;28;20231;-85
2021/05/30 04:26:07;;;;;;;61.00;28.27;;;8.30;93.40;;;;;;5032903;28;20260;-86
2021/05/30 04:28:32;;;;;;;56.73;28.10;;;8.30;93.50;;;;;;5032965;28;20183;-85
2021/05/30 04:30:58;;;;;;;50.20;26.40;;;8.30;93.50;;;;;;5015266;28;20184;-85
2021/05/30 04:33:24;;;;;;;46.60;24.97;;;8.30;93.40;;;;;;5015184;28;20688;-86
2021/05/30 04:35:49;;;;;;;42.40;24.03;;;8.40;93.50;;;;;;5032774;28;20291;-85
2021/05/30 04:38:17;;;;;;;52.30;28.67;;;8.40;93.50;;;;;;5015111;28;20184;-85
2021/05/30 04:40:43;;;;;;;52.87;25.07;;;8.40;93.50;;;;;;5017151;28;20199;-86
2021/05/30 04:43:09;;;;;;;49.20;25.37;;;8.50;93.50;;;;;;5036696;28;20212;-86
2021/05/30 04:45:34;;;;;;;56.70;25.37;;;8.50;93.50;;;;;;5036669;28;20170;-85
2021/05/30 04:48:00;;;;;;;45.57;23.27;;;8.50;93.40;;;;;;5036651;28;20506;-86
2021/05/30 04:50:26;;;;;;;43.47;25.00;;;8.50;93.40;;;;;;5036571;28;20168;-85
2021/05/30 04:52:52;;;;;;;46.23;24.47;;;8.50;93.40;;;;;;5018734;28;20287;-86
2021/05/30 04:55:17;;;;;;;45.13;24.57;;;8.50;93.40;;;;;;5036810;28;20208;-86
2021/05/30 04:57:45;;;;;;;55.73;25.73;;;8.60;93.40;;;;;;5036487;28;20201;-86
2021/05/30 05:00:12;;;;;;;43.87;21.60;;;8.60;93.40;;;;;;5036684;28;20577;-86
2021/05/30 05:02:38;;;;;;;46.87;23.13;;;8.60;93.30;;;;;;5018608;28;20284;-86
2021/05/30 05:05:05;;;;;;;46.93;23.20;;;8.50;93.30;;;;;;5036344;28;20649;-85
2021/05/30 05:07:31;;;;;;;43.17;22.07;;;8.70;93.30;;;;;;5018589;28;20180;-85
2021/05/30 05:09:57;;;;;;;33.00;21.37;;;8.70;93.30;;;;;;5018548;28;20191;-86
2021/05/30 05:12:22;;;;;;;42.80;21.60;;;8.70;93.30;;;;;;5036527;28;20177;-87
2021/05/30 05:14:49;;;;;;;33.40;21.37;;;8.80;93.20;;;;;;5036321;28;20200;-86
2021/05/30 05:17:15;;;;;;;47.33;24.53;;;8.70;93.10;;;;;;5018250;28;20254;-86
2021/05/30 05:19:41;;;;;;;38.43;23.13;;;8.70;93.00;;;;;;5018401;28;20181;-86
2021/05/30 05:22:07;;;;;;;34.57;21.03;;;8.80;92.90;;;;;;5036287;28;20546;-85
2021/05/30 05:24:32;;;;;;;38.90;21.47;;;8.70;92.80;;;;;;5036248;28;20168;-86
2021/05/30 05:26:58;;;;;;;39.00;22.70;;;8.80;92.80;;;;;;5018190;28;20264;-85
2021/05/30 05:29:24;;;;;;;40.33;23.00;;;8.70;92.80;;;;;;5018103;28;20181;-85
2021/05/30 05:31:49;;;;;;;40.40;21.30;;;8.80;92.80;;;;;;5035799;28;20226;-86
2021/05/30 05:34:15;;;;;;;41.93;22.23;;;8.80;92.80;;;;;;5035732;28;20664;-86
2021/05/30 05:36:41;;;;;;;40.60;22.57;;;8.80;92.80;;;;;;5017950;28;20668;-85
2021/05/30 05:39:06;;;;;;;39.73;23.33;;;8.90;92.80;;;;;;5017880;28;20180;-85
2021/05/30 05:41:32;;;;;;;41.47;22.73;;;8.90;92.80;;;;;;5035599;28;20175;-86
2021/05/30 05:43:58;;;;;;;37.20;22.47;;;9.00;92.70;;;;;;5035529;28;20672;-86
2021/05/30 05:46:24;;;;;;;41.47;22.30;;;9.00;92.60;;;;;;5035596;28;20199;-86
2021/05/30 05:48:49;;;;;;;49.13;25.00;;;9.10;92.70;;;;;;5035502;28;20618;-85
2021/05/30 05:51:15;;;;;;;39.13;22.90;;;9.10;92.60;;;;;;5017069;28;20180;-85
2021/05/30 05:53:41;;;;;;;37.07;21.90;;;9.00;92.40;;;;;;5017396;28;20553;-86
2021/05/30 05:56:07;;;;;;;38.43;22.40;;;9.00;92.30;;;;;;5035297;28;20223;-85
2021/05/30 05:58:33;;;;;;;41.57;21.17;;;9.20;92.30;;;;;;5017658;28;20632;-86
2021/05/30 06:00:59;;;;;;;36.47;21.63;;;9.20;92.10;;;;;;5017477;28;20184;-85
2021/05/30 06:03:25;;;;;;;35.37;20.10;;;9.30;92.00;;;;;;5035131;28;20283;-86
2021/05/30 06:05:50;;;;;;;38.47;22.03;;;9.20;91.90;;;;;;5035190;28;20210;-85
2021/05/30 06:08:16;;;;;;;32.90;20.90;;;9.20;91.80;;;;;;5017358;28;20173;-86
2021/05/30 06:10:41;;;;;;;31.80;20.60;;;9.30;91.90;;;;;;5017370;28;20181;-86
2021/05/30 06:13:10;;;;;;;33.40;19.43;;;9.30;91.70;;;;;;5034987;28;20195;-86
2021/05/30 06:15:39;;;;;;;40.03;20.57;;;9.30;91.60;;;;;;5017235;28;20181;-86
2021/05/30 06:18:12;;;;;;;32.30;20.37;;;9.40;91.60;;;;;;5017184;28;20629;-86
2021/05/30 06:20:40;;;;;;;36.37;20.00;;;9.30;91.40;;;;;;5017242;28;20610;-86
2021/05/30 06:23:06;;;;;;;40.57;20.00;;;9.40;91.40;;;;;;5034792;28;20185;-86
2021/05/30 06:25:32;;;;;;;34.17;19.43;;;9.50;91.30;;;;;;5017075;28;20629;-85
2021/05/30 06:27:58;;;;;;;33.20;20.23;;;9.60;91.40;;;;;;5034787;28;20177;-86
2021/05/30 06:30:29;;;;;;;25.93;18.40;;;9.70;91.40;;;;;;5034806;28;20181;-86
2021/05/30 06:32:56;;;;;;;34.27;18.80;;;9.60;91.00;;;;;;5016833;28;20202;-86
2021/05/30 06:35:22;;;;;;;28.67;19.57;;;9.60;90.90;;;;;;5016870;28;20188;-85
2021/05/30 06:37:49;;;;;;;33.50;19.23;;;9.60;90.70;;;;;;5016726;28;20259;-86
2021/05/30 06:40:15;;;;;;;28.00;18.10;;;9.70;90.70;;;;;;5016852;28;20180;-86
2021/05/30 06:42:40;;;;;;;31.93;19.47;;;9.70;90.40;;;;;;5034235;28;20703;-85
2021/05/30 06:45:06;;;;;;;35.43;19.33;;;9.80;90.70;;;;;;5016677;28;20174;-85
2021/05/30 06:47:32;;;;;;;30.70;18.07;;;9.80;90.90;;;;;;5034342;28;20191;-86
2021/05/30 06:49:58;;;;;;;33.07;19.30;;;9.90;90.70;;;;;;5034573;28;20188;-86
2021/05/30 06:52:24;;;;;;;27.07;17.03;;;10.00;90.40;;;;;;5034259;28;20230;-86
2021/05/30 06:54:50;;;;;;;28.33;18.77;;;10.00;90.20;;;;;;5016569;28;20181;-86
2021/05/30 06:57:16;;;;;;;31.57;18.47;;;10.10;90.30;;;;;;5034144;28;20677;-86
2021/05/30 06:59:42;;;;;;;36.13;19.83;;;10.10;89.80;;;;;;5016324;28;20279;-86
2021/05/30 07:02:08;;;;;;;33.07;19.07;;;10.10;89.60;;;;;;5033947;28;20226;-87
2021/05/30 07:04:33;;;;;;;29.33;18.20;;;10.20;89.70;;;;;;5034248;28;20603;-86
2021/05/30 07:06:59;;;;;;;30.00;18.87;;;10.20;89.10;;;;;;5016416;28;20706;-86
2021/05/30 07:09:25;;;;;;;33.77;20.67;;;10.00;88.50;;;;;;5016323;28;20583;-86
2021/05/30 07:11:50;;;;;;;35.90;21.97;;;10.10;89.20;;;;;;5034074;28;20177;-86
2021/05/30 07:14:16;;;;;;;29.50;19.73;;;10.10;88.80;;;;;;5033804;28;20200;-86
2021/05/30 07:16:42;;;;;;;25.70;19.77;;;10.20;88.80;;;;;;5033826;28;20580;-86
2021/05/30 07:19:07;;;;;;;37.87;21.23;;;10.20;88.80;;;;;;5033863;28;20592;-86
2021/05/30 07:21:33;;;;;;;29.10;18.53;;;10.30;88.70;;;;;;5033745;28;20188;-86
2021/05/30 07:23:59;;;;;;;28.20;19.57;;;10.40;88.10;;;;;;5033779;28;20204;-86
2021/05/30 07:26:24;;;;;;;31.83;18.77;;;10.50;88.10;;;;;;5033691;28;20204;-86
2021/05/30 07:28:50;;;;;;;32.70;20.37;;;10.60;88.40;;;;;;5033953;28;20181;-86
2021/05/30 07:31:16;;;;;;;37.00;22.20;;;10.70;87.90;;;;;;5015952;28;20211;-87
2021/05/30 07:33:42;;;;;;;31.70;19.53;;;10.90;87.90;;;;;;5015826;28;20208;-87
2021/05/30 07:36:08;;;;;;;32.73;19.87;;;11.10;87.50;;;;;;5033527;28;20200;-86
2021/05/30 07:38:34;;;;;;;29.57;20.00;;;11.10;87.00;;;;;;5015851;28;20180;-86
2021/05/30 07:41:01;;;;;;;31.97;21.47;;;10.90;87.20;;;;;;5015822;28;20655;-87
2021/05/30 07:43:27;;;;;;;31.37;19.37;;;11.00;87.10;;;;;;5015527;28;20243;-86
2021/05/30 07:45:53;;;;;;;33.63;21.03;;;11.00;87.20;;;;;;5015657;28;20180;-86
2021/05/30 07:48:19;;;;;;;39.70;20.00;;;10.90;86.90;;;;;;5015676;28;20199;-86
2021/05/30 07:50:46;;;;;;;32.57;20.40;;;11.10;87.10;;;;;;5033328;28;20644;-86
2021/05/30 07:53:13;;;;;;;38.00;20.43;;;11.20;86.90;;;;;;5015544;28;20679;-86
2021/05/30 07:55:39;;;;;;;35.30;19.33;;;11.10;86.10;;;;;;5015452;28;20176;-86
2021/05/30 07:58:04;;;;;;;23.17;15.33;;;11.00;86.50;;;;;;5033251;28;20625;-86
2021/05/30 08:00:30;;;;;;;32.43;20.10;;;11.20;85.70;;;;;;5033523;28;20183;-86
2021/05/30 08:02:56;;;;;;;35.23;18.23;;;11.40;85.90;;;;;;5015432;28;20205;-86
2021/05/30 08:05:21;;;;;;;37.57;19.00;;;11.80;85.30;;;;;;5033169;28;20621;-86
2021/05/30 08:07:51;;;;;;;29.50;18.53;;;12.00;85.30;;;;;;5033377;28;20223;-86
2021/05/30 08:10:19;;;;;;;29.90;17.23;;;12.00;83.90;;;;;;5015371;28;20184;-86
2021/05/30 08:12:45;;;;;;;33.57;17.43;;;11.70;83.10;;;;;;5015306;28;20569;-87
2021/05/30 08:15:11;;;;;;;32.13;18.53;;;11.80;83.90;;;;;;5036068;28;20168;-86
2021/05/30 08:17:38;;;;;;;30.57;18.70;;;12.00;83.60;;;;;;5021821;28;20262;-86
2021/05/30 08:20:07;;;;;;;27.77;18.27;;;12.10;83.00;;;;;;5021959;28;20183;-86
2021/05/30 08:22:32;;;;;;;28.80;19.57;;;11.80;82.50;;;;;;5039485;28;20188;-87
2021/05/30 08:24:58;;;;;;;30.03;19.83;;;11.80;83.10;;;;;;5039914;28;20175;-87
2021/05/30 08:27:24;;;;;;;29.40;17.77;;;12.20;83.20;;;;;;5021683;28;20595;-87
2021/05/30 08:29:50;;;;;;;31.33;18.83;;;12.30;81.60;;;;;;5039557;28;20526;-86
2021/05/30 08:32:15;;;;;;;31.33;18.93;;;12.00;82.80;;;;;;5021740;28;20180;-87
2021/05/30 08:34:41;;;;;;;33.83;19.37;;;12.10;83.00;;;;;;5021808;28;20242;-87
2021/05/30 08:37:07;;;;;;;36.17;20.70;;;12.20;82.60;;;;;;5021673;28;20203;-87
2021/05/30 08:39:33;;;;;;;29.03;17.63;;;12.40;82.90;;;;;;5039402;28;20173;-87
2021/05/30 08:41:59;;;;;;;27.57;17.67;;;12.20;81.20;;;;;;5021746;28;20177;-86
2021/05/30 08:44:25;;;;;;;28.83;17.90;;;12.30;82.60;;;;;;5039188;28;20287;-86
2021/05/30 08:46:50;;;;;;;26.57;17.87;;;12.80;82.80;;;;;;5039377;28;20582;-86
2021/05/30 08:49:16;;;;;;;29.40;17.73;;;12.70;79.80;;;;;;5039296;28;20550;-86
2021/05/30 08:51:42;;;;;;;33.83;18.07;;;12.80;81.50;;;;;;5021572;28;20191;-86
2021/05/30 08:54:11;;;;;;;25.60;16.03;;;13.20;81.50;;;;;;5021403;28;20206;-86
2021/05/30 08:56:39;;;;;;;27.43;16.43;;;13.50;79.90;;;;;;5039155;28;20204;-85
2021/05/30 08:59:29;;;;;;;32.47;17.03;;;13.50;78.80;;;;;;5039311;28;20600;-86
2021/05/30 09:02:00;;;;;;;28.17;16.17;;;13.40;80.20;;;;;;4999152;28;20234;-85
2021/05/30 09:04:35;;;;;;;30.73;16.40;;;13.20;80.20;;;;;;5021540;28;20196;-85
2021/05/30 09:07:01;;;;;;;30.60;15.13;;;13.20;80.40;;;;;;5021581;28;20187;-86
2021/05/30 09:09:35;;;;;;;25.60;15.10;;;13.70;79.30;;;;;;5021473;28;20180;-86
2021/05/30 09:12:01;;;;;;;26.00;14.97;;;13.70;78.20;;;;;;5039594;28;20210;-86
2021/05/30 09:14:30;;;;;;;23.30;13.33;;;13.80;78.90;;;;;;5021701;28;20200;-85
2021/05/30 09:17:07;;;;;;;27.17;14.90;;;14.10;78.80;;;;;;5039086;28;20231;-85
2021/05/30 09:19:41;;;;;;;23.77;13.13;;;14.10;77.00;;;;;;5021899;28;20164;-86
2021/05/30 09:22:26;;;;;;;21.63;13.70;;;14.30;76.70;;;;;;5021357;28;20267;-86
2021/05/30 09:24:52;;;;;;;24.13;14.10;;;14.20;77.80;;;;;;5039042;28;20252;-86
2021/05/30 09:27:22;;;;;;;21.90;13.73;;;14.20;78.20;;;;;;5018918;28;20728;-85
2021/05/30 09:30:06;;;;;;;19.83;12.53;;;14.60;77.50;;;;;;5035861;28;20256;-85
2021/05/30 09:32:55;;;;;;;22.90;12.43;;;14.90;75.40;;;;;;5035675;28;20188;-85
2021/05/30 09:35:37;;;;;;;19.03;11.83;;;15.20;75.00;;;;;;5036308;28;20161;-85
2021/05/30 09:38:09;;;;;;;20.57;11.80;;;15.00;75.70;;;;;;5035856;28;20223;-85
2021/05/30 09:40:39;;;;;;;17.03;10.70;;;14.70;74.20;;;;;;5035548;28;20169;-85
2021/05/30 09:43:08;;;;;;;23.33;11.20;;;15.00;74.80;;;;;;5035485;28;20200;-85
2021/05/30 09:45:35;;;;;;;22.03;11.17;;;14.80;74.50;;;;;;5017862;28;20173;-85
2021/05/30 09:48:02;;;;;;;19.30;11.50;;;15.20;76.00;;;;;;5017833;28;20259;-85
2021/05/30 09:50:32;;;;;;;16.03;10.80;;;15.00;73.50;;;;;;5017742;28;20176;-86
2021/05/30 09:53:01;;;;;;;17.77;10.27;;;15.10;74.20;;;;;;5035270;28;20258;-86
2021/05/30 09:55:33;;;;;;;18.80;9.53;;;15.40;74.00;;;;;;5017599;28;20184;-86
2021/05/30 09:58:15;;;;;;;21.80;10.13;;;15.60;72.00;;;;;;5035242;28;20192;-86
2021/05/30 10:00:56;;;;;;;18.55;9.40;;;15.70;74.30;;;;;;5017538;28;20177;-86
2021/05/30 10:03:23;;;;;;;17.10;9.25;;;16.30;72.30;;;;;;5017321;28;20203;-87
2021/05/30 10:05:49;;;;;;;19.63;9.93;;;16.10;71.80;;;;;;5017266;28;20180;-87
2021/05/30 10:08:19;;;;;;;19.02;9.77;;;16.30;72.40;;;;;;5017327;28;20176;-87
2021/05/30 10:10:46;;;;;;;18.38;8.70;;;16.50;71.00;;;;;;5017244;28;20667;-88
2021/05/30 10:13:12;;;;;;;14.77;9.10;;;16.60;69.50;;;;;;5017175;28;20197;-87
2021/05/30 10:15:39;;;;;;;18.58;9.35;;;16.60;69.80;;;;;;5017325;28;20177;-87
2021/05/30 10:18:22;;;;;;;26.88;9.45;;;16.30;71.10;;;;;;5017094;28;20227;-87
2021/05/30 10:20:50;;;;;;;19.25;9.73;;;16.40;69.40;;;;;;5017136;28;20164;-87
2021/05/30 10:23:19;;;;;;;19.30;9.38;;;16.50;70.70;;;;;;5017014;28;20192;-87
2021/05/30 10:25:45;;;;;;;13.73;8.45;;;16.70;67.80;;;;;;5017051;28;20185;-87
2021/05/30 10:28:19;;;;;;;19.63;9.77;;;16.30;67.90;;;;;;5016891;28;20544;-87
2021/05/30 10:30:48;;;;;;;25.38;9.65;;;16.60;70.20;;;;;;5016878;28;20315;-87
2021/05/30 10:33:15;;;;;;;19.58;9.18;;;16.80;70.70;;;;;;5034500;28;20192;-87
2021/05/30 10:35:43;;;;;;;15.88;8.82;;;17.40;69.20;;;;;;5034553;28;20168;-87
2021/05/30 10:38:11;;;;;;;22.02;8.90;;;17.50;68.50;;;;;;5016229;28;20189;-88
2021/05/30 10:40:42;;;;;;;19.05;9.25;;;17.50;67.10;;;;;;5016581;28;20195;-87
2021/05/30 10:43:16;;;;;;;18.60;9.10;;;17.60;65.90;;;;;;5016543;28;20299;-87
2021/05/30 10:45:42;;;;;;;18.92;9.27;;;17.80;66.70;;;;;;5016618;28;20215;-87
2021/05/30 10:48:07;;;;;;;16.65;9.32;;;17.60;64.70;;;;;;5034301;28;20168;-87
2021/05/30 10:50:39;;;;;;;20.08;8.90;;;17.50;68.50;;;;;;5016517;28;20181;-87
2021/05/30 10:53:39;;;;;;;15.70;9.70;;;18.00;66.30;;;;;;5017329;28;20567;-87
2021/05/30 10:56:31;;;;;;;16.63;10.15;;;17.90;67.10;;;;;;5016630;28;20219;-87
2021/05/30 10:59:03;;;;;;;19.75;10.23;;;18.00;65.40;;;;;;5034178;28;20543;-87
2021/05/30 11:01:35;;;;;;;17.35;10.02;;;18.30;66.40;;;;;;5034129;28;20248;-87
2021/05/30 11:04:31;;;;;;;16.88;8.27;;;18.30;65.20;;;;;;5034222;28;20185;-87
2021/05/30 11:07:02;;;;;;;16.58;8.80;;;18.40;65.70;;;;;;5034010;28;20153;-88
2021/05/30 11:09:55;;;;;;;17.17;9.27;;;18.70;64.10;;;;;;5016149;28;20183;-87
2021/05/30 11:12:30;;;;;;;20.75;10.30;;;18.20;65.30;;;;;;5004531;28;20189;-87
2021/05/30 11:15:07;;;;;;;17.77;9.52;;;18.50;63.40;;;;;;5016110;28;20694;-87
2021/05/30 11:17:41;;;;;;;21.05;10.00;;;18.80;63.30;;;;;;5015968;28;20227;-87
2021/05/30 11:20:19;;;;;;;14.65;8.60;;;18.90;62.70;;;;;;5033692;28;20597;-87
2021/05/30 11:22:46;;;;;;;16.73;9.27;;;18.70;62.30;;;;;;5015901;28;20548;-87
2021/05/30 11:25:18;;;;;;;19.30;9.88;;;18.80;61.90;;;;;;5016298;28;20640;-87
2021/05/30 11:27:47;;;;;;;19.25;9.50;;;19.00;62.30;;;;;;5015910;28;20184;-87
2021/05/30 11:30:32;;;;;;;14.65;8.95;;;18.80;62.50;;;;;;5015876;28;20183;-87
2021/05/30 11:32:58;;;;;;;17.52;8.05;;;18.80;61.00;;;;;;5033497;28;20188;-87
2021/05/30 11:35:24;;;;;;;15.55;7.35;;;19.20;62.20;;;;;;5015913;28;20600;-88
2021/05/30 11:37:50;;;;;;;11.98;7.18;;;18.80;62.40;;;;;;5015776;28;20196;-88
2021/05/30 11:40:19;;;;;;;14.30;7.75;;;18.60;64.40;;;;;;5015753;28;20218;-88
2021/05/30 11:42:46;;;;;;;16.67;7.65;;;18.80;64.90;;;;;;5033376;28;20574;-88
2021/05/30 11:45:35;;;;;;;17.20;7.60;;;19.10;62.90;;;;;;5015715;28;20259;-88
2021/05/30 11:48:12;;;;;;;22.30;8.02;;;19.00;63.70;;;;;;5015776;28;20161;-88
2021/05/30 11:50:55;;;;;;;14.85;6.88;;;18.50;65.50;;;;;;5014904;28;20259;-88
2021/05/30 11:53:33;;;;;;;16.83;7.82;;;19.10;62.90;;;;;;5033358;28;20195;-88
2021/05/30 11:55:59;;;;;;;16.73;6.43;;;18.90;62.80;;;;;;5033596;28;20157;-88
2021/05/30 11:58:25;;;;;;;15.63;5.95;;;18.90;61.00;;;;;;5033319;28;20184;-88
2021/05/30 12:01:03;;;;;;;19.38;6.70;;;19.10;61.70;;;;;;5033453;28;20177;-87
2021/05/30 12:03:29;;;;;;;13.25;6.50;;;18.70;62.50;;;;;;5015630;28;20707;-87
2021/05/30 12:06:00;;;;;;;12.88;6.13;;;19.20;63.60;;;;;;5033359;28;20177;-88
2021/05/30 12:08:26;;;;;;;12.57;6.45;;;19.20;62.90;;;;;;5015422;28;20223;-88
2021/05/30 12:11:00;;;;;;;18.33;7.22;;;19.30;61.40;;;;;;5015317;28;20172;-87
2021/05/30 12:13:35;;;;;;;17.60;7.55;;;18.90;63.40;;;;;;5015536;28;20192;-88
2021/05/30 12:16:20;;;;;;;22.15;7.88;;;19.30;62.30;;;;;;5015404;28;20168;-88
2021/05/30 12:18:57;;;;;;;21.60;7.75;;;19.30;63.00;;;;;;5032407;28;20339;-88
2021/05/30 12:21:24;;;;;;;17.63;6.68;;;19.50;63.30;;;;;;5032997;28;20171;-88
2021/05/30 12:23:50;;;;;;;14.52;6.57;;;19.90;61.40;;;;;;5015128;28;20288;-88
2021/05/30 12:26:17;;;;;;;16.95;7.93;;;20.20;60.20;;;;;;5015342;28;20181;-88
2021/05/30 12:28:43;;;;;;;17.00;7.72;;;19.70;62.20;;;;;;5032978;28;20176;-88
2021/05/30 12:31:16;;;;;;;17.35;8.27;;;19.70;62.30;;;;;;5015220;28;20208;-88
2021/05/30 12:34:01;;;;;;;17.27;7.80;;;19.30;63.10;;;;;;5015364;28;20202;-88
2021/05/30 12:36:47;;;;;;;20.35;9.18;;;19.70;64.30;;;;;;5015193;28;20200;-88
2021/05/30 12:39:15;;;;;;;18.92;9.02;;;19.50;62.60;;;;;;5015515;28;20180;-87